createdAt,value
2019-06-07T00:01:55.007Z,66.22
2019-06-07T00:04:25.313Z,66.29
2019-06-07T00:06:55.745Z,66.43
2019-06-07T00:09:25.959Z,66.46
2019-06-07T00:11:56.178Z,66.98
2019-06-07T00:14:27.911Z,67.63
2019-06-07T00:16:58.208Z,68.10
2019-06-07T00:19:28.368Z,68.11
2019-06-07T00:22:22.567Z,67.86
2019-06-07T00:24:30.556Z,68.02
2019-06-07T00:27:00.794Z,67.85
2019-06-07T00:29:31.029Z,67.50
2019-06-07T00:32:01.284Z,68.51
2019-06-07T00:34:31.471Z,69.12
2019-06-07T00:37:02.664Z,68.27
2019-06-07T00:39:32.888Z,68.00
2019-06-07T00:42:03.207Z,68.16
2019-06-07T00:44:33.388Z,68.65
2019-06-07T00:47:04.087Z,68.01
2019-06-07T00:49:41.144Z,68.26
2019-06-07T00:52:07.304Z,68.11
2019-06-07T00:54:37.613Z,68.12
2019-06-07T00:57:07.918Z,67.90
2019-06-07T00:59:38.120Z,68.26
2019-06-07T01:02:08.312Z,68.68
2019-06-07T01:04:38.515Z,69.12
2019-06-07T01:07:08.735Z,69.26
2019-06-07T01:09:38.956Z,69.49
2019-06-07T01:12:09.127Z,69.74
2019-06-07T01:14:39.826Z,69.00
2019-06-07T01:17:29.124Z,69.39
2019-06-07T01:19:48.362Z,69.45
2019-06-07T01:22:20.633Z,69.63
2019-06-07T01:24:50.420Z,69.79
2019-06-07T01:27:22.689Z,68.85
2019-06-07T01:29:52.468Z,69.73
2019-06-07T01:32:24.617Z,69.81
2019-06-07T01:34:55.681Z,69.99
2019-06-07T01:37:27.872Z,70.07
2019-06-07T01:39:57.866Z,70.13
2019-06-07T01:42:29.461Z,70.63
2019-06-07T01:44:59.946Z,70.35
2019-06-07T01:47:32.218Z,70.74
2019-06-07T01:50:02.266Z,70.77
2019-06-07T01:52:32.480Z,70.46
2019-06-07T01:55:02.687Z,70.29
2019-06-07T01:57:45.574Z,70.97
2019-06-07T02:00:07.844Z,71.70
2019-06-07T02:02:38.084Z,71.32
2019-06-07T02:05:08.567Z,71.86
2019-06-07T02:07:38.775Z,71.86
2019-06-07T02:10:10.390Z,71.70
2019-06-07T02:12:43.441Z,71.91
2019-06-07T02:15:12.738Z,71.84
2019-06-07T02:17:42.985Z,71.72
2019-06-07T02:20:13.313Z,71.95
2019-06-07T02:22:43.510Z,71.84
2019-06-07T02:25:37.245Z,72.48
2019-06-07T02:27:46.475Z,72.21
2019-06-07T02:30:40.317Z,72.04
2019-06-07T02:32:49.831Z,72.25
2019-06-07T02:35:25.580Z,72.24
2019-06-07T02:37:53.716Z,72.81
2019-06-07T02:40:27.094Z,72.87
2019-06-07T02:42:56.307Z,72.55
2019-06-07T02:45:29.910Z,73.21
2019-06-07T02:48:01.158Z,73.30
2019-06-07T02:50:36.462Z,73.55
2019-06-07T02:53:03.903Z,73.74
2019-06-07T02:56:26.301Z,73.98
2019-06-07T02:58:08.093Z,73.76
2019-06-07T03:01:07.600Z,74.34
2019-06-07T03:03:22.368Z,74.29
2019-06-07T03:06:03.345Z,74.67
2019-06-07T03:08:36.589Z,74.33
2019-06-07T03:11:07.771Z,74.87
2019-06-07T03:13:42.308Z,74.87
2019-06-07T03:16:14.343Z,75.42
2019-06-07T03:19:05.962Z,75.15
2019-06-07T03:21:44.150Z,75.04
2019-06-07T03:24:14.316Z,75.50
2019-06-07T03:27:32.244Z,74.81
2019-06-07T03:29:16.829Z,75.90
2019-06-07T03:31:48.300Z,76.17
2019-06-07T03:34:23.249Z,76.71
2019-06-07T03:36:53.473Z,76.85
2019-06-07T03:39:25.166Z,76.55
2019-06-07T03:42:05.583Z,76.33
2019-06-07T03:44:28.574Z,75.77
2019-06-07T03:46:59.621Z,76.38
2019-06-07T03:49:37.517Z,76.50
2019-06-07T03:52:10.186Z,76.89
2019-06-07T03:54:40.493Z,76.42
2019-06-07T03:57:10.713Z,76.38
2019-06-07T03:59:43.097Z,76.00
2019-06-07T04:02:20.023Z,76.23
2019-06-07T04:04:50.198Z,76.35
2019-06-07T04:07:21.708Z,76.25
2019-06-07T04:09:51.963Z,76.18
2019-06-07T04:12:22.121Z,76.55
2019-06-07T04:14:52.322Z,76.11
2019-06-07T04:17:44.573Z,76.32
2019-06-07T04:20:09.310Z,77.19
2019-06-07T04:22:42.435Z,76.52
2019-06-07T04:25:13.441Z,76.77
2019-06-07T04:27:43.623Z,77.99
2019-06-07T04:30:15.646Z,76.48
2019-06-07T04:32:47.957Z,75.72
2019-06-07T04:35:18.513Z,75.96
2019-06-07T04:37:49.142Z,76.88
2019-06-07T04:40:21.453Z,77.98
2019-06-07T04:42:54.058Z,77.33
2019-06-07T04:45:39.733Z,77.74
2019-06-07T04:48:06.850Z,76.76
2019-06-07T04:50:40.332Z,77.84
2019-06-07T04:53:09.688Z,79.03
2019-06-07T04:55:51.080Z,78.87
2019-06-07T04:58:23.982Z,78.33
2019-06-07T05:01:02.569Z,78.25
2019-06-07T05:03:26.574Z,76.71
2019-06-07T05:05:56.778Z,75.73
2019-06-07T05:08:29.822Z,75.36
2019-06-07T05:10:58.942Z,75.18
2019-06-07T05:13:31.489Z,75.78
2019-06-07T05:16:01.099Z,75.51
2019-06-07T05:18:33.676Z,74.68
2019-06-07T05:21:06.292Z,73.79
2019-06-07T05:26:08.374Z,73.44
2019-06-07T05:28:42.294Z,71.90
2019-06-07T05:31:11.430Z,73.28
2019-06-07T05:33:43.578Z,71.84
2019-06-07T05:36:15.052Z,70.87
2019-06-07T05:38:45.378Z,71.20
2019-06-07T05:41:16.908Z,70.59
2019-06-07T05:44:00.254Z,70.45
2019-06-07T05:46:19.068Z,69.44
2019-06-07T05:48:49.256Z,69.51
2019-06-07T05:51:19.489Z,68.78
2019-06-07T05:53:49.766Z,66.96
2019-06-07T05:56:19.976Z,66.76
2019-06-07T05:58:50.223Z,65.87
2019-06-07T06:01:42.975Z,66.78
2019-06-07T06:03:52.329Z,66.51
2019-06-07T06:06:22.626Z,66.29
2019-06-07T06:09:12.947Z,65.41
2019-06-07T06:11:43.225Z,65.23
2019-06-07T06:14:07.299Z,63.86
2019-06-07T06:16:32.462Z,64.85
2019-06-07T06:19:03.668Z,65.00
2019-06-07T06:21:36.194Z,63.35
2019-06-07T06:24:06.419Z,62.62
2019-06-07T06:26:40.789Z,61.13
2019-06-07T06:29:10.193Z,60.46
2019-06-07T06:31:49.342Z,57.68
2019-06-07T06:34:12.809Z,56.37
2019-06-07T06:36:45.584Z,57.55
2019-06-07T06:39:15.088Z,58.35
2019-06-07T06:41:54.455Z,58.30
2019-06-07T06:44:17.370Z,57.60
2019-06-07T06:46:57.069Z,57.35
2019-06-07T06:49:20.037Z,57.87
2019-06-07T06:51:53.408Z,57.95
2019-06-07T06:54:39.504Z,57.90
2019-06-07T06:57:17.158Z,57.70
2019-06-07T06:59:38.604Z,57.09
2019-06-07T07:01:58.172Z,56.85
2019-06-07T07:04:28.466Z,56.87
2019-06-07T07:06:59.128Z,56.70
2019-06-07T07:09:29.734Z,57.64
2019-06-07T07:12:11.109Z,57.42
2019-06-07T07:14:31.894Z,56.23
2019-06-07T07:17:02.163Z,55.11
2019-06-07T07:19:32.329Z,57.27
2019-06-07T07:22:02.531Z,55.61
2019-06-07T07:24:32.727Z,55.46
2019-06-07T07:27:02.967Z,55.29
2019-06-07T07:29:33.202Z,55.00
2019-06-07T07:32:03.422Z,56.10
2019-06-07T07:34:36.889Z,55.81
2019-06-07T07:37:06.493Z,54.48
2019-06-07T07:39:36.693Z,54.08
2019-06-07T07:42:20.768Z,55.25
2019-06-07T07:44:39.921Z,53.55
2019-06-07T07:47:10.243Z,53.07
2019-06-07T07:49:40.522Z,54.44
2019-06-07T07:52:10.763Z,54.66
2019-06-07T07:54:41.057Z,54.22
2019-06-07T07:57:11.261Z,52.53
2019-06-07T07:59:54.038Z,52.51
2019-06-07T08:02:13.381Z,52.93
2019-06-07T08:05:13.659Z,51.23
2019-06-07T08:07:15.597Z,53.00
2019-06-07T08:09:47.430Z,52.42
2019-06-07T08:12:17.781Z,52.94
2019-06-07T08:14:50.261Z,51.89
2019-06-07T08:17:20.139Z,50.91
2019-06-07T08:19:52.199Z,51.49
2019-06-07T08:22:22.893Z,50.98
2019-06-07T08:24:55.298Z,51.02
2019-06-07T08:27:26.943Z,50.70
2019-06-07T08:30:15.751Z,50.73
2019-06-07T08:32:29.217Z,49.22
2019-06-07T08:35:03.336Z,47.72
2019-06-07T08:38:14.313Z,47.44
2019-06-07T08:40:04.473Z,48.30
2019-06-07T08:42:48.442Z,47.14
2019-06-07T08:45:11.459Z,46.18
2019-06-07T08:48:07.464Z,46.83
2019-06-07T08:50:31.391Z,45.62
2019-06-07T08:53:11.502Z,45.17
2019-06-07T08:55:33.627Z,46.23
2019-06-07T08:58:08.456Z,46.00
2019-06-07T09:00:47.084Z,45.09
2019-06-07T09:03:07.844Z,45.89
2019-06-07T09:05:38.119Z,45.84
2019-06-07T09:08:28.258Z,43.30
2019-06-07T09:10:40.288Z,43.97
2019-06-07T09:13:11.875Z,43.69
2019-06-07T09:15:42.323Z,43.95
2019-06-07T09:20:48.916Z,43.44
2019-06-07T09:23:22.623Z,44.33
2019-06-07T09:26:02.578Z,42.67
2019-06-07T09:28:25.337Z,43.07
2019-06-07T09:30:57.877Z,44.54
2019-06-07T09:33:28.718Z,43.19
2019-06-07T09:36:01.586Z,42.27
2019-06-07T09:38:30.924Z,43.45
2019-06-07T09:41:04.490Z,43.34
2019-06-07T09:46:12.986Z,43.31
2019-06-07T09:51:19.742Z,40.46
2019-06-07T09:53:47.779Z,41.45
2019-06-07T09:56:18.402Z,42.78
2019-06-07T09:58:52.513Z,41.95
2019-06-07T10:01:20.679Z,43.50
2019-06-07T10:03:51.573Z,42.67
2019-06-07T10:06:21.861Z,40.88
2019-06-07T10:11:24.308Z,41.13
2019-06-07T10:13:54.532Z,40.58
2019-06-07T10:16:24.804Z,40.62
2019-06-07T10:18:55.126Z,41.23
2019-06-07T10:21:25.452Z,40.58
2019-06-07T10:23:55.715Z,42.13
2019-06-07T10:26:25.942Z,40.50
2019-06-07T10:28:56.183Z,41.89
2019-06-07T10:31:26.427Z,42.08
2019-06-07T10:33:56.749Z,41.82
2019-06-07T10:36:26.999Z,40.10
2019-06-07T10:38:57.265Z,40.88
2019-06-07T10:41:27.544Z,41.26
2019-06-07T10:43:57.829Z,41.34
2019-06-07T10:46:28.070Z,41.31
2019-06-07T10:48:58.437Z,40.78
2019-06-07T10:51:28.639Z,41.53
2019-06-07T10:53:58.830Z,41.18
2019-06-07T10:56:29.060Z,40.76
2019-06-07T10:58:59.263Z,41.89
2019-06-07T11:01:29.460Z,41.59
2019-06-07T11:03:59.800Z,40.82
2019-06-07T11:06:31.154Z,40.92
2019-06-07T11:09:01.348Z,40.61
2019-06-07T11:11:33.064Z,40.11
2019-06-07T11:14:04.357Z,40.62
2019-06-07T11:16:34.650Z,41.01
2019-06-07T11:19:06.054Z,41.45
2019-06-07T11:21:36.359Z,40.75
2019-06-07T11:24:06.593Z,41.33
2019-06-07T11:26:36.848Z,40.93
2019-06-07T11:29:08.840Z,40.81
2019-06-07T11:31:40.280Z,40.07
2019-06-07T11:34:10.553Z,40.78
2019-06-07T11:36:40.717Z,40.27
2019-06-07T11:39:11.204Z,39.81
2019-06-07T11:41:41.396Z,40.59
2019-06-07T11:44:12.874Z,39.79
2019-06-07T11:46:43.218Z,39.78
2019-06-07T11:49:19.906Z,39.48
2019-06-07T11:51:45.522Z,39.94
2019-06-07T11:54:16.202Z,40.48
2019-06-07T11:56:46.569Z,40.99
2019-06-07T11:59:17.863Z,40.30
2019-06-07T12:01:48.069Z,41.46
2019-06-07T12:04:32.519Z,40.51
2019-06-07T12:06:50.281Z,40.95
2019-06-07T12:09:20.473Z,40.19
2019-06-07T12:11:52.217Z,39.99
2019-06-07T12:14:24.432Z,40.96
2019-06-07T12:16:54.423Z,41.86
2019-06-07T12:19:29.112Z,42.12
2019-06-07T12:22:06.101Z,42.18
2019-06-07T12:24:39.285Z,42.42
2019-06-07T12:27:08.269Z,41.12
2019-06-07T12:29:38.495Z,42.23
2019-06-07T12:32:08.764Z,41.73
2019-06-07T12:34:39.109Z,41.60
2019-06-07T12:37:09.497Z,41.51
2019-06-07T12:39:39.713Z,43.16
2019-06-07T12:42:12.410Z,42.25
2019-06-07T12:44:43.591Z,42.87
2019-06-07T12:47:15.027Z,43.13
2019-06-07T12:49:45.314Z,42.24
2019-06-07T12:52:17.712Z,41.51
2019-06-07T12:54:48.286Z,43.20
2019-06-07T12:57:20.047Z,42.94
2019-06-07T12:59:53.717Z,42.01
2019-06-07T13:02:25.516Z,41.36
2019-06-07T13:04:56.062Z,41.76
2019-06-07T13:07:26.355Z,42.52
2019-06-07T13:09:56.626Z,41.59
2019-06-07T13:12:28.194Z,42.54
2019-06-07T13:14:58.483Z,42.42
2019-06-07T13:17:28.740Z,40.32
2019-06-07T13:19:58.914Z,41.88
2019-06-07T13:22:29.242Z,40.67
2019-06-07T13:24:59.720Z,41.03
2019-06-07T13:27:33.374Z,41.09
2019-06-07T13:30:09.818Z,41.01
2019-06-07T13:32:37.834Z,41.01
2019-06-07T13:35:10.997Z,40.58
2019-06-07T13:37:41.243Z,41.55
2019-06-07T13:40:12.103Z,39.56
2019-06-07T13:42:42.348Z,38.27
2019-06-07T13:45:18.000Z,38.62
2019-06-07T13:47:50.885Z,38.47
2019-06-07T13:50:23.910Z,37.89
2019-06-07T13:52:54.174Z,37.89
2019-06-07T13:55:25.803Z,36.19
2019-06-07T13:57:56.015Z,38.01
2019-06-07T14:00:26.655Z,37.60
2019-06-07T14:02:57.217Z,38.89
2019-06-07T14:05:36.307Z,40.14
2019-06-07T14:08:09.959Z,39.16
2019-06-07T14:10:44.008Z,40.75
2019-06-07T14:13:14.313Z,39.36
2019-06-07T14:15:44.948Z,38.80
2019-06-07T14:18:26.499Z,39.81
2019-06-07T14:20:58.977Z,39.81
2019-06-07T14:23:45.757Z,40.38
2019-06-07T14:26:01.406Z,39.81
2019-06-07T14:28:34.223Z,39.46
2019-06-07T14:31:05.627Z,40.06
2019-06-07T14:33:40.990Z,40.83
2019-06-07T14:36:11.172Z,39.35
2019-06-07T14:38:41.380Z,39.96
2019-06-07T14:41:11.834Z,39.44
2019-06-07T14:43:42.246Z,40.07
2019-06-07T14:46:12.633Z,40.59
2019-06-07T14:48:42.854Z,40.05
2019-06-07T14:51:13.085Z,39.56
2019-06-07T14:53:43.298Z,39.35
2019-06-07T14:56:13.666Z,39.08
2019-06-07T14:58:43.999Z,38.66
2019-06-07T15:01:14.375Z,36.76
2019-06-07T15:03:44.565Z,36.41
2019-06-07T15:06:15.963Z,35.30
2019-06-07T15:08:46.148Z,34.34
2019-06-07T15:11:16.436Z,34.94
2019-06-07T15:13:47.757Z,33.66
2019-06-07T15:16:23.108Z,33.38
2019-06-07T15:18:53.362Z,34.18
2019-06-07T15:21:24.677Z,32.85
2019-06-07T15:23:57.568Z,33.18
2019-06-07T15:26:28.352Z,32.98
2019-06-07T15:28:58.711Z,32.53
2019-06-07T15:31:32.116Z,32.11
2019-06-07T15:34:02.388Z,32.03
2019-06-07T15:36:34.422Z,31.28
2019-06-07T15:39:07.210Z,32.04
2019-06-07T15:41:39.787Z,32.06
2019-06-07T15:44:13.855Z,32.23
2019-06-07T15:46:44.095Z,31.93
2019-06-07T15:49:14.334Z,32.54
2019-06-07T15:51:45.830Z,31.99
2019-06-07T15:54:16.024Z,31.51
2019-06-07T15:56:46.287Z,30.98
2019-06-07T15:59:16.532Z,31.32
2019-06-07T16:01:48.768Z,30.57
2019-06-07T16:04:18.950Z,30.98
2019-06-07T16:06:49.155Z,31.12
2019-06-07T16:09:19.374Z,30.33
2019-06-07T16:11:56.352Z,31.14
2019-06-07T16:14:29.560Z,29.96
2019-06-07T16:17:05.255Z,30.63
2019-06-07T16:19:44.457Z,30.25
2019-06-07T16:22:14.432Z,30.24
2019-06-07T16:24:47.529Z,29.71
2019-06-07T16:27:18.277Z,30.16
2019-06-07T16:29:48.892Z,29.65
2019-06-07T16:32:25.049Z,29.55
2019-06-07T16:34:57.341Z,30.14
2019-06-07T16:37:27.785Z,31.01
2019-06-07T16:40:00.011Z,32.17
2019-06-07T16:42:30.249Z,30.65
2019-06-07T16:45:08.700Z,29.79
2019-06-07T16:47:42.315Z,30.02
2019-06-07T16:50:13.670Z,30.64
2019-06-07T16:52:46.459Z,32.57
2019-06-07T16:55:16.356Z,33.78
2019-06-07T16:57:46.552Z,31.67
2019-06-07T17:00:17.387Z,31.00
2019-06-07T17:02:48.861Z,31.26
2019-06-07T17:05:24.763Z,31.55
2019-06-07T17:07:59.256Z,30.73
2019-06-07T17:10:30.518Z,31.30
2019-06-07T17:13:00.922Z,30.52
2019-06-07T17:15:31.121Z,31.26
2019-06-07T17:18:06.990Z,30.19
2019-06-07T17:20:37.187Z,31.45
2019-06-07T17:23:09.556Z,31.36
2019-06-07T17:25:43.514Z,32.80
2019-06-07T17:28:14.859Z,34.71
2019-06-07T17:30:46.115Z,37.00
2019-06-07T17:33:19.323Z,37.80
2019-06-07T17:35:50.592Z,38.74
2019-06-07T17:38:21.203Z,38.00
2019-06-07T17:40:51.548Z,37.65
2019-06-07T17:43:21.827Z,37.15
2019-06-07T17:45:56.779Z,37.21
2019-06-07T17:48:37.745Z,38.24
2019-06-07T17:51:08.388Z,39.25
2019-06-07T17:53:38.615Z,40.21
2019-06-07T17:56:08.773Z,40.51
2019-06-07T17:58:39.032Z,40.30
2019-06-07T18:01:10.093Z,41.50
2019-06-07T18:03:40.381Z,41.65
2019-06-07T18:06:16.612Z,41.65
2019-06-07T18:08:51.667Z,42.61
2019-06-07T18:11:22.929Z,42.01
2019-06-07T18:14:10.156Z,42.67
2019-06-07T18:16:28.714Z,43.03
2019-06-07T18:19:01.048Z,44.01
2019-06-07T18:21:31.544Z,44.82
2019-06-07T18:24:04.596Z,45.14
2019-06-07T18:26:39.005Z,45.62
2019-06-07T18:29:12.504Z,46.31
2019-06-07T18:31:42.688Z,45.89
2019-06-07T18:34:13.033Z,47.13
2019-06-07T18:36:43.220Z,46.83
2019-06-07T18:39:13.194Z,47.01
2019-06-07T18:41:43.391Z,48.17
2019-06-07T18:44:21.557Z,48.16
2019-06-07T18:46:50.142Z,48.36
2019-06-07T18:49:23.951Z,48.58
2019-06-07T18:52:20.921Z,49.11
2019-06-07T18:54:53.114Z,50.11
2019-06-07T18:57:28.326Z,50.56
2019-06-07T18:59:58.944Z,50.74
2019-06-07T19:02:29.712Z,50.73
2019-06-07T19:05:01.729Z,51.67
2019-06-07T19:07:32.007Z,51.21
2019-06-07T19:10:06.405Z,51.98
2019-06-07T19:12:36.597Z,51.55
2019-06-07T19:15:08.115Z,51.85
2019-06-07T19:17:38.581Z,52.83
2019-06-07T19:20:09.173Z,52.87
2019-06-07T19:22:41.398Z,52.79
2019-06-07T19:25:12.214Z,52.83
2019-06-07T19:27:42.654Z,53.20
2019-06-07T19:30:15.566Z,52.46
2019-06-07T19:32:49.760Z,53.26
2019-06-07T19:35:20.274Z,53.06
2019-06-07T19:37:51.778Z,53.60
2019-06-07T19:40:22.152Z,53.96
2019-06-07T19:42:52.293Z,53.70
2019-06-07T19:45:31.523Z,53.97
2019-06-07T19:47:58.705Z,54.06
2019-06-07T19:50:29.008Z,54.21
2019-06-07T19:52:59.600Z,54.79
2019-06-07T19:55:29.938Z,55.56
2019-06-07T19:58:01.787Z,57.37
2019-06-07T20:00:32.171Z,57.15
2019-06-07T20:03:05.199Z,58.38
2019-06-07T20:05:38.234Z,60.40
2019-06-07T20:08:08.568Z,62.06
2019-06-07T20:10:38.973Z,65.32
2019-06-07T20:13:09.188Z,65.62
2019-06-07T20:15:39.618Z,67.88
2019-06-07T20:18:12.520Z,70.57
2019-06-07T20:20:44.716Z,77.36
2019-06-07T20:23:15.113Z,81.26
2019-06-07T20:25:45.340Z,84.33
2019-06-07T20:28:15.567Z,84.74
2019-06-07T20:30:47.936Z,86.72
2019-06-07T20:33:28.673Z,85.81
2019-06-07T20:35:50.123Z,87.50
2019-06-07T20:38:20.363Z,81.91
2019-06-07T20:40:50.662Z,80.72
2019-06-07T20:43:21.136Z,83.68
2019-06-07T20:45:51.423Z,83.73
2019-06-07T20:48:26.575Z,83.84
2019-06-07T20:51:00.613Z,84.18
2019-06-07T20:53:31.869Z,85.10
2019-06-07T20:56:04.597Z,85.07
2019-06-07T20:58:37.166Z,87.22
2019-06-07T21:01:09.048Z,88.84
2019-06-07T21:03:41.413Z,87.23
2019-06-07T21:06:11.811Z,87.30
2019-06-07T21:08:42.528Z,86.92
2019-06-07T21:11:12.848Z,87.00
2019-06-07T21:13:43.159Z,86.15
2019-06-07T21:16:13.341Z,87.11
2019-06-07T21:18:43.526Z,87.94
2019-06-07T21:21:13.887Z,83.86
2019-06-07T21:23:44.233Z,87.38
2019-06-07T21:26:14.439Z,87.35
2019-06-07T21:28:44.848Z,86.26
2019-06-07T21:31:16.753Z,85.36
2019-06-07T21:33:47.359Z,87.21
2019-06-07T21:36:17.880Z,84.03
2019-06-07T21:38:48.746Z,86.45
2019-06-07T21:41:22.025Z,87.11
2019-06-07T21:43:52.246Z,86.37
2019-06-07T21:46:23.547Z,86.95
2019-06-07T21:48:53.716Z,81.23
2019-06-07T21:51:24.213Z,80.16
2019-06-07T21:53:55.489Z,80.95
2019-06-07T21:56:25.715Z,81.14
2019-06-07T21:58:55.933Z,82.04
2019-06-07T22:01:30.101Z,83.13
2019-06-07T22:04:00.329Z,86.28
2019-06-07T22:06:30.573Z,86.76
2019-06-07T22:09:03.827Z,86.55
2019-06-07T22:11:34.946Z,87.15
2019-06-07T22:14:06.247Z,87.21
2019-06-07T22:16:36.721Z,88.98
2019-06-07T22:19:06.986Z,89.86
2019-06-07T22:21:37.304Z,87.93
2019-06-07T22:24:08.809Z,89.90
2019-06-07T22:26:39.235Z,89.83
2019-06-07T22:29:10.300Z,90.09
2019-06-07T22:31:41.100Z,91.31
2019-06-07T22:34:12.712Z,92.46
2019-06-07T22:36:43.155Z,91.34
2019-06-07T22:39:13.968Z,91.26
2019-06-07T22:41:44.624Z,91.32
2019-06-07T22:44:14.968Z,91.13
2019-06-07T22:46:50.059Z,91.41
2019-06-07T22:49:20.400Z,90.38
2019-06-07T22:51:50.901Z,89.50
2019-06-07T22:54:21.179Z,85.14
2019-06-07T22:56:56.454Z,84.83
2019-06-07T22:59:26.635Z,83.24
2019-06-07T23:01:56.822Z,84.00
2019-06-07T23:04:27.000Z,85.08
2019-06-07T23:06:57.225Z,84.37
2019-06-07T23:09:27.955Z,83.55
2019-06-07T23:11:59.696Z,84.02
2019-06-07T23:14:29.890Z,85.04
2019-06-07T23:17:00.206Z,85.25
2019-06-07T23:19:30.421Z,86.63
2019-06-07T23:22:00.772Z,86.47
2019-06-07T23:24:30.957Z,86.51
2019-06-07T23:27:02.266Z,89.46
2019-06-07T23:29:32.521Z,88.53
2019-06-07T23:32:02.679Z,88.99
2019-06-07T23:34:33.423Z,88.56
2019-06-07T23:37:03.615Z,88.55
2019-06-07T23:39:33.838Z,88.70
2019-06-07T23:42:03.987Z,87.09
2019-06-07T23:44:34.583Z,89.08
2019-06-07T23:47:11.296Z,91.70
2019-06-07T23:49:36.620Z,91.83
2019-06-07T23:52:06.884Z,91.93
2019-06-07T23:54:37.106Z,92.64
2019-06-07T23:57:07.224Z,91.38
2019-06-07T23:59:56.464Z,92.46
